Algoway — VDFP — position and weather

sailwx.info

Track history (hours):
 
Tides and Currents Weather Stations Pressure Air Temp Water Temp Dewpoint Dewpoint Depression Visibility Wind Speed Wind Dir Waves Ship Positions

Algoway

Last reported at 2017-Sep-22 04:00 UTC. Time now 2017-Sep-22 18:54 UTC.
Position N 44°54' W 082°54'.

Length 197 m; draft 7.3 m.

Type: Cargo ship. MMSI: 316001797.

Wind from 170 at 10 knots

Barometer 1015.0 mb
Air temperature 21.0 ° C
Visibility: greater than 5.4 NM

Date/timePositionNaut miles runAvg speedWind from/ knotsBaromVisibWave heightAir tempDewpointWater temp
2017-Sep-22 04:00N 44°54' W 082°54'3910.6 170 / 101015.0 5.4 21.0
2017-Sep-22 00:19N 45°29' W 083°17'410.4
2017-Sep-21 23:56N 45°32' W 083°21'410.5
2017-Sep-21 23:30N 45°36' W 083°26'510.6
2017-Sep-21 23:00N 45°40' W 083°31'610.5
2017-Sep-21 22:26N 45°44' W 083°37'410.3
2017-Sep-21 22:00N 45°47' W 083°41'28 9.3
2017-Sep-21 18:57N 46°10' W 084°05'9 4.7
2017-Sep-21 17:00N 46°18' W 084°12'5 0.1 100 / 51014.010.8 24.0
2017-Sep-19 22:04N 46°23' W 084°14'2 9.5
2017-Sep-19 21:52N 46°21' W 084°12'10 7.1
2017-Sep-19 20:30N 46°12' W 084°07'610.3
2017-Sep-19 19:53N 46°08' W 084°01'4 9.0
2017-Sep-19 19:27N 46°04' W 083°60'4 9.4
2017-Sep-19 19:00N 46°02' W 083°54'5 9.6
2017-Sep-19 18:29N 45°57' W 083°53'511.1
2017-Sep-19 17:59N 45°53' W 083°48'611.2
2017-Sep-19 17:29N 45°49' W 083°43'611.3
2017-Sep-19 16:59N 45°45' W 083°37'611.2
2017-Sep-19 16:28N 45°41' W 083°31'511.1
2017-Sep-19 16:00N 45°37' W 083°26'611.1
2017-Sep-19 15:30N 45°34' W 083°20'610.9
2017-Sep-19 15:00N 45°30' W 083°14'511.0
2017-Sep-19 14:30N 45°25' W 083°10'611.0
2017-Sep-19 14:00N 45°21' W 083°06'610.9
2017-Sep-19 13:29N 45°16' W 083°01'16 9.5
2017-Sep-19 11:50N 45°01' W 082°53'511.0
2017-Sep-19 11:24N 44°57' W 082°54'1310.9
2017-Sep-19 10:13N 44°44' W 082°57'310.8
2017-Sep-19 09:57N 44°41' W 082°57'1310.6
2017-Sep-19 08:42N 44°28' W 083°02'310.9
2017-Sep-19 08:28N 44°26' W 083°04'  
2017-Sep-15 05:00N 45°06' W 082°18'4132.4 170 / 101012.010.8 18.0
2017-Sep-15 03:44N 45°24' W 083°10'3 9.8
2017-Sep-15 03:26N 45°26' W 083°13'4 9.8
2017-Sep-15 03:00N 45°29' W 083°17'5 9.9
2017-Sep-15 02:30N 45°33' W 083°22'510.0
2017-Sep-15 02:00N 45°36' W 083°27'510.2
2017-Sep-15 01:30N 45°40' W 083°32'510.1
2017-Sep-15 00:59N 45°44' W 083°37'510.2
2017-Sep-15 00:30N 45°48' W 083°41'510.4
2017-Sep-15 00:00N 45°51' W 083°47'510.3
2017-Sep-14 23:30N 45°55' W 083°52'4 8.0
2017-Sep-14 23:00N 45°59' W 083°53'0 0.0
2017-Sep-14 18:44N 45°59' W 083°53'0 0.0
2017-Sep-14 18:29N 45°59' W 083°53'0 0.0
2017-Sep-14 16:32N 45°59' W 083°53'0 0.1
2017-Sep-14 16:26N 45°59' W 083°53'0 0.0
2017-Sep-14 15:50N 45°59' W 083°53'0 0.0
2017-Sep-14 15:23N 45°59' W 083°53'0 0.0
2017-Sep-14 14:56N 45°59' W 083°53'0 0.0
2017-Sep-14 14:30N 45°59' W 083°53'0 0.0
2017-Sep-14 14:00N 45°59' W 083°53'0 0.0
2017-Sep-14 13:30N 45°59' W 083°53'0 0.0
2017-Sep-14 13:00N 45°59' W 083°53'0 0.0
2017-Sep-14 12:27N 45°59' W 083°53'0 0.0
2017-Sep-14 11:37N 45°59' W 083°53'0 0.1
2017-Sep-14 11:30N 45°59' W 083°53'0 0.8
2017-Sep-14 10:58N 45°59' W 083°53'2 3.5
2017-Sep-14 10:30N 45°58' W 083°54'4 8.4
2017-Sep-14 10:00N 45°54' W 083°51'511.0
2017-Sep-14 09:30N 45°51' W 083°45'511.0
2017-Sep-14 09:00N 45°47' W 083°39'510.9
2017-Sep-14 08:30N 45°43' W 083°34'510.8
2017-Sep-14 08:00N 45°39' W 083°28'1111.0
2017-Sep-14 07:00N 45°31' W 083°17'611.1
2017-Sep-14 06:30N 45°27' W 083°12'611.1
2017-Sep-14 06:00N 45°23' W 083°07'611.0
2017-Sep-14 05:30N 45°18' W 083°02'  
Track history (hours):
 
Tides and Currents Weather Stations Pressure Air Temp Water Temp Dewpoint Dewpoint Depression Visibility Wind Speed Wind Dir Waves Ship Positions

Algoway

Last reported at 2017-Sep-22 04:00 UTC. Time now 2017-Sep-22 18:54 UTC.
Position N 44°54' W 082°54'.

Length 197 m; draft 7.3 m.

Type: Cargo ship. MMSI: 316001797.

Wind from 170 at 10 knots

Barometer 1015.0 mb
Air temperature 21.0 ° C
Visibility: greater than 5.4 NM

Date/timePositionNaut miles runAvg speedWind from/ knotsBaromVisibWave heightAir tempDewpointWater temp
2017-Sep-22 04:00N 44°54' W 082°54'3910.6 170 / 101015.0 5.4 21.0
2017-Sep-22 00:19N 45°29' W 083°17'410.4
2017-Sep-21 23:56N 45°32' W 083°21'410.5
2017-Sep-21 23:30N 45°36' W 083°26'510.6
2017-Sep-21 23:00N 45°40' W 083°31'610.5
2017-Sep-21 22:26N 45°44' W 083°37'410.3
2017-Sep-21 22:00N 45°47' W 083°41'28 9.3
2017-Sep-21 18:57N 46°10' W 084°05'9 4.7
2017-Sep-21 17:00N 46°18' W 084°12'5 0.1 100 / 51014.010.8 24.0
2017-Sep-19 22:04N 46°23' W 084°14'2 9.5
2017-Sep-19 21:52N 46°21' W 084°12'10 7.1
2017-Sep-19 20:30N 46°12' W 084°07'610.3
2017-Sep-19 19:53N 46°08' W 084°01'4 9.0
2017-Sep-19 19:27N 46°04' W 083°60'4 9.4
2017-Sep-19 19:00N 46°02' W 083°54'5 9.6
2017-Sep-19 18:29N 45°57' W 083°53'511.1
2017-Sep-19 17:59N 45°53' W 083°48'611.2
2017-Sep-19 17:29N 45°49' W 083°43'611.3
2017-Sep-19 16:59N 45°45' W 083°37'611.2
2017-Sep-19 16:28N 45°41' W 083°31'511.1
2017-Sep-19 16:00N 45°37' W 083°26'611.1
2017-Sep-19 15:30N 45°34' W 083°20'610.9
2017-Sep-19 15:00N 45°30' W 083°14'511.0
2017-Sep-19 14:30N 45°25' W 083°10'611.0
2017-Sep-19 14:00N 45°21' W 083°06'610.9
2017-Sep-19 13:29N 45°16' W 083°01'16 9.5
2017-Sep-19 11:50N 45°01' W 082°53'511.0
2017-Sep-19 11:24N 44°57' W 082°54'1310.9
2017-Sep-19 10:13N 44°44' W 082°57'310.8
2017-Sep-19 09:57N 44°41' W 082°57'1310.6
2017-Sep-19 08:42N 44°28' W 083°02'310.9
2017-Sep-19 08:28N 44°26' W 083°04'  
2017-Sep-15 05:00N 45°06' W 082°18'4132.4 170 / 101012.010.8 18.0
2017-Sep-15 03:44N 45°24' W 083°10'3 9.8
2017-Sep-15 03:26N 45°26' W 083°13'4 9.8
2017-Sep-15 03:00N 45°29' W 083°17'5 9.9
2017-Sep-15 02:30N 45°33' W 083°22'510.0
2017-Sep-15 02:00N 45°36' W 083°27'510.2
2017-Sep-15 01:30N 45°40' W 083°32'510.1
2017-Sep-15 00:59N 45°44' W 083°37'510.2
2017-Sep-15 00:30N 45°48' W 083°41'510.4
2017-Sep-15 00:00N 45°51' W 083°47'510.3
2017-Sep-14 23:30N 45°55' W 083°52'4 8.0
2017-Sep-14 23:00N 45°59' W 083°53'0 0.0
2017-Sep-14 18:44N 45°59' W 083°53'0 0.0
2017-Sep-14 18:29N 45°59' W 083°53'0 0.0
2017-Sep-14 16:32N 45°59' W 083°53'0 0.1
2017-Sep-14 16:26N 45°59' W 083°53'0 0.0
2017-Sep-14 15:50N 45°59' W 083°53'0 0.0
2017-Sep-14 15:23N 45°59' W 083°53'0 0.0
2017-Sep-14 14:56N 45°59' W 083°53'0 0.0
2017-Sep-14 14:30N 45°59' W 083°53'0 0.0
2017-Sep-14 14:00N 45°59' W 083°53'0 0.0
2017-Sep-14 13:30N 45°59' W 083°53'0 0.0
2017-Sep-14 13:00N 45°59' W 083°53'0 0.0
2017-Sep-14 12:27N 45°59' W 083°53'0 0.0
2017-Sep-14 11:37N 45°59' W 083°53'0 0.1
2017-Sep-14 11:30N 45°59' W 083°53'0 0.8
2017-Sep-14 10:58N 45°59' W 083°53'2 3.5
2017-Sep-14 10:30N 45°58' W 083°54'4 8.4
2017-Sep-14 10:00N 45°54' W 083°51'511.0
2017-Sep-14 09:30N 45°51' W 083°45'511.0
2017-Sep-14 09:00N 45°47' W 083°39'510.9
2017-Sep-14 08:30N 45°43' W 083°34'510.8
2017-Sep-14 08:00N 45°39' W 083°28'1111.0
2017-Sep-14 07:00N 45°31' W 083°17'611.1
2017-Sep-14 06:30N 45°27' W 083°12'611.1
2017-Sep-14 06:00N 45°23' W 083°07'611.0
2017-Sep-14 05:30N 45°18' W 083°02'  

Dump ship's entire track history